createdAt,value
2018-12-19T00:01:17.063Z,65.63
2018-12-19T00:03:44.570Z,66.03
2018-12-19T00:06:12.074Z,61.00
2018-12-19T00:08:39.549Z,64.67
2018-12-19T00:11:07.042Z,63.03
2018-12-19T00:13:34.568Z,65.07
2018-12-19T00:16:02.055Z,65.37
2018-12-19T00:18:29.566Z,67.23
2018-12-19T00:20:57.045Z,68.87
2018-12-19T00:23:24.535Z,62.83
2018-12-19T00:25:52.060Z,60.83
2018-12-19T00:28:19.588Z,64.30
2018-12-19T00:30:47.111Z,60.40
2018-12-19T00:33:14.619Z,65.37
2018-12-19T00:35:42.114Z,61.20
2018-12-19T00:38:09.597Z,61.40
2018-12-19T00:40:37.098Z,58.67
2018-12-19T00:43:04.592Z,54.13
2018-12-19T00:45:32.070Z,59.30
2018-12-19T00:47:59.585Z,63.97
2018-12-19T00:50:27.061Z,55.77
2018-12-19T00:52:54.541Z,60.40
2018-12-19T00:55:22.063Z,61.60
2018-12-19T00:57:49.566Z,68.97
2018-12-19T01:00:17.066Z,63.33
2018-12-19T01:05:18.330Z,61.57
2018-12-19T01:07:45.829Z,61.47
2018-12-19T01:10:13.306Z,62.10
2018-12-19T01:12:41.572Z,63.17
2018-12-19T01:15:09.049Z,62.27
2018-12-19T01:17:36.539Z,58.23
2018-12-19T01:20:04.611Z,61.57
2018-12-19T01:22:32.101Z,59.07
2018-12-19T01:24:59.585Z,62.83
2018-12-19T01:27:27.081Z,59.10
2018-12-19T01:29:54.572Z,56.27
2018-12-19T01:32:22.070Z,62.07
2018-12-19T01:34:49.556Z,54.97
2018-12-19T01:37:17.604Z,55.93
2018-12-19T01:39:45.118Z,54.43
2018-12-19T01:42:12.597Z,61.53
2018-12-19T01:44:40.066Z,56.93
2018-12-19T01:47:07.533Z,57.83
2018-12-19T01:49:35.025Z,57.37
2018-12-19T01:52:02.509Z,58.60
2018-12-19T01:54:29.989Z,63.10
2018-12-19T01:56:57.461Z,55.33
2018-12-19T01:59:24.953Z,56.10
2018-12-19T02:01:52.463Z,61.07
2018-12-19T02:04:19.947Z,56.77
2018-12-19T02:06:47.488Z,64.67
2018-12-19T02:09:14.981Z,58.73
2018-12-19T02:11:42.484Z,64.40
2018-12-19T02:14:09.964Z,56.47
2018-12-19T02:16:37.465Z,58.63
2018-12-19T02:19:05.082Z,60.47
2018-12-19T02:21:32.563Z,60.57
2018-12-19T02:24:00.061Z,61.50
2018-12-19T02:26:27.570Z,59.50
2018-12-19T02:28:55.254Z,61.77
2018-12-19T02:31:22.790Z,56.37
2018-12-19T02:33:50.263Z,58.77
2018-12-19T02:36:17.759Z,60.70
2018-12-19T02:38:45.279Z,60.37
2018-12-19T02:41:12.794Z,58.30
2018-12-19T02:43:40.271Z,61.40
2018-12-19T02:46:07.781Z,62.93
2018-12-19T02:48:35.279Z,60.70
2018-12-19T02:51:02.781Z,58.50
2018-12-19T02:53:30.300Z,60.13
2018-12-19T02:55:57.823Z,57.37
2018-12-19T02:58:25.314Z,60.77
2018-12-19T03:00:52.827Z,60.27
2018-12-19T03:03:20.365Z,62.20
2018-12-19T03:05:47.849Z,62.37
2018-12-19T03:08:15.369Z,60.70
2018-12-19T03:10:42.845Z,64.33
2018-12-19T03:13:10.375Z,62.57
2018-12-19T03:15:37.877Z,61.47
2018-12-19T03:18:05.371Z,65.13
2018-12-19T03:20:32.883Z,61.40
2018-12-19T03:23:00.376Z,62.57
2018-12-19T03:25:27.887Z,58.73
2018-12-19T03:27:55.370Z,62.07
2018-12-19T03:30:22.889Z,60.77
2018-12-19T03:32:50.386Z,60.03
2018-12-19T03:35:17.868Z,60.63
2018-12-19T03:37:45.391Z,58.50
2018-12-19T03:40:12.882Z,60.43
2018-12-19T03:42:40.389Z,66.87
2018-12-19T03:45:07.896Z,68.37
2018-12-19T03:47:35.416Z,69.73
2018-12-19T03:50:02.991Z,71.67
2018-12-19T03:52:30.481Z,67.00
2018-12-19T03:54:58.005Z,69.57
2018-12-19T03:57:25.868Z,71.63
2018-12-19T03:59:53.351Z,66.37
2018-12-19T04:02:20.845Z,73.17
2018-12-19T04:04:48.315Z,74.93
2018-12-19T04:07:15.831Z,71.83
2018-12-19T04:09:43.330Z,69.27
2018-12-19T04:12:10.835Z,68.57
2018-12-19T04:14:38.314Z,67.10
2018-12-19T04:17:05.796Z,69.53
2018-12-19T04:19:33.356Z,71.60
2018-12-19T04:22:00.842Z,72.27
2018-12-19T04:24:28.322Z,70.80
2018-12-19T04:26:55.842Z,71.50
2018-12-19T04:29:23.314Z,70.93
2018-12-19T04:31:50.942Z,71.10
2018-12-19T04:34:18.430Z,70.17
2018-12-19T04:36:45.914Z,73.40
2018-12-19T04:39:13.406Z,72.27
2018-12-19T04:41:40.885Z,74.73
2018-12-19T04:44:08.394Z,72.70
2018-12-19T04:46:35.924Z,83.73
2018-12-19T04:49:03.406Z,86.03
2018-12-19T04:51:31.027Z,76.60
2018-12-19T04:53:58.521Z,71.97
2018-12-19T04:56:25.995Z,74.70
2018-12-19T04:58:53.468Z,83.70
2018-12-19T05:01:20.938Z,73.63
2018-12-19T05:03:48.407Z,69.37
2018-12-19T05:06:15.927Z,67.50
2018-12-19T05:08:43.430Z,67.60
2018-12-19T05:11:10.901Z,71.83
2018-12-19T05:13:38.386Z,72.17
2018-12-19T05:16:05.918Z,67.73
2018-12-19T05:18:33.422Z,72.30
2018-12-19T05:21:00.954Z,62.00
2018-12-19T05:23:28.447Z,70.40
2018-12-19T05:25:55.939Z,73.20
2018-12-19T05:28:23.459Z,69.90
2018-12-19T05:30:50.964Z,73.67
2018-12-19T05:33:18.494Z,73.93
2018-12-19T05:35:45.994Z,73.33
2018-12-19T05:38:14.452Z,73.53
2018-12-19T05:40:41.962Z,63.90
2018-12-19T05:43:09.499Z,63.37
2018-12-19T05:45:37.011Z,65.50
2018-12-19T05:48:04.506Z,71.13
2018-12-19T05:50:31.999Z,69.70
2018-12-19T05:52:59.498Z,70.43
2018-12-19T05:55:26.988Z,69.97
2018-12-19T05:57:54.498Z,69.83
2018-12-19T06:00:21.978Z,62.37
2018-12-19T06:02:49.494Z,67.20
2018-12-19T06:05:17.015Z,66.30
2018-12-19T06:07:44.507Z,63.77
2018-12-19T06:10:11.993Z,68.23
2018-12-19T06:12:39.490Z,67.20
2018-12-19T06:15:06.975Z,70.73
2018-12-19T06:17:34.474Z,62.70
2018-12-19T06:20:01.949Z,65.63
2018-12-19T06:22:29.431Z,66.73
2018-12-19T06:24:56.967Z,76.07
2018-12-19T06:27:24.461Z,76.83
2018-12-19T06:29:51.952Z,72.63
2018-12-19T06:32:19.442Z,75.17
2018-12-19T06:34:47.002Z,77.07
2018-12-19T06:37:14.678Z,75.27
2018-12-19T06:39:42.548Z,72.90
2018-12-19T06:42:10.068Z,75.80
2018-12-19T06:44:37.608Z,81.33
2018-12-19T06:47:05.102Z,76.33
2018-12-19T06:49:32.582Z,79.67
2018-12-19T06:52:00.115Z,76.90
2018-12-19T06:54:28.555Z,76.97
2018-12-19T06:56:56.059Z,77.33
2018-12-19T06:59:23.570Z,75.33
2018-12-19T07:01:51.041Z,80.50
2018-12-19T07:04:24.608Z,79.67
2018-12-19T07:06:52.876Z,78.47
2018-12-19T07:09:20.376Z,77.30
2018-12-19T07:11:47.899Z,82.43
2018-12-19T07:14:15.393Z,79.77
2018-12-19T07:16:43.591Z,84.83
2018-12-19T07:19:11.336Z,79.50
2018-12-19T07:21:38.860Z,80.53
2018-12-19T07:24:06.433Z,84.00
2018-12-19T07:26:33.937Z,81.87
2018-12-19T07:29:02.321Z,85.10
2018-12-19T07:31:29.842Z,81.03
2018-12-19T07:33:57.369Z,79.20
2018-12-19T07:36:24.874Z,89.83
2018-12-19T07:38:52.419Z,82.60
2018-12-19T07:41:19.910Z,80.87
2018-12-19T07:43:47.443Z,86.00
2018-12-19T07:46:19.855Z,84.20
2018-12-19T07:48:44.632Z,85.13
2018-12-19T07:51:12.131Z,76.80
2018-12-19T07:53:39.627Z,83.73
2018-12-19T07:56:07.236Z,80.37
2018-12-19T07:58:34.770Z,79.63
2018-12-19T08:01:02.254Z,74.90
2018-12-19T08:03:30.176Z,82.17
2018-12-19T08:05:57.732Z,78.40
2018-12-19T08:08:25.207Z,78.33
2018-12-19T08:10:52.690Z,79.33
2018-12-19T08:13:20.314Z,75.80
2018-12-19T08:15:47.893Z,74.70
2018-12-19T08:18:15.387Z,71.97
2018-12-19T08:20:42.911Z,68.83
2018-12-19T08:23:10.426Z,70.17
2018-12-19T08:25:37.923Z,68.20
2018-12-19T08:28:05.405Z,74.53
2018-12-19T08:30:32.896Z,70.93
2018-12-19T08:33:00.406Z,63.20
2018-12-19T08:35:27.910Z,63.63
2018-12-19T08:37:55.387Z,65.70
2018-12-19T08:40:22.861Z,70.17
2018-12-19T08:42:50.325Z,64.93
2018-12-19T08:45:17.919Z,61.20
2018-12-19T08:47:45.390Z,68.70
2018-12-19T08:50:12.861Z,65.30
2018-12-19T08:52:40.334Z,60.30
2018-12-19T08:55:07.809Z,65.63
2018-12-19T08:57:35.314Z,63.90
2018-12-19T09:00:03.061Z,55.00
2018-12-19T09:02:30.533Z,64.47
2018-12-19T09:04:58.006Z,61.57
2018-12-19T09:07:25.478Z,62.97
2018-12-19T09:09:52.974Z,63.33
2018-12-19T09:12:20.454Z,65.00
2018-12-19T09:14:47.917Z,63.53
2018-12-19T09:17:15.484Z,67.83
2018-12-19T09:19:43.156Z,59.60
2018-12-19T09:22:11.047Z,63.73
2018-12-19T09:24:38.530Z,69.40
2018-12-19T09:27:06.010Z,64.93
2018-12-19T09:29:33.491Z,60.30
2018-12-19T09:32:01.009Z,60.73
2018-12-19T09:34:28.511Z,70.57
2018-12-19T09:36:55.998Z,66.07
2018-12-19T09:39:23.465Z,62.00
2018-12-19T09:41:50.967Z,59.17
2018-12-19T09:44:18.442Z,64.30
2018-12-19T09:46:45.956Z,64.10
2018-12-19T09:49:14.095Z,62.13
2018-12-19T09:51:41.675Z,60.60
2018-12-19T09:54:10.222Z,57.67
2018-12-19T09:56:37.695Z,60.40
2018-12-19T09:59:05.164Z,59.17
2018-12-19T10:01:32.639Z,61.60
2018-12-19T10:04:00.138Z,57.87
2018-12-19T10:06:27.643Z,59.70
2018-12-19T10:08:55.111Z,57.57
2018-12-19T10:11:22.597Z,58.67
2018-12-19T10:13:50.102Z,54.50
2018-12-19T10:16:17.578Z,60.00
2018-12-19T10:18:45.083Z,59.03
2018-12-19T10:21:12.574Z,57.37
2018-12-19T10:23:40.053Z,53.30
2018-12-19T10:26:12.715Z,56.70
2018-12-19T10:28:40.187Z,59.53
2018-12-19T10:31:07.690Z,57.97
2018-12-19T10:33:35.149Z,57.40
2018-12-19T10:36:02.695Z,54.90
2018-12-19T10:38:30.199Z,62.97
2018-12-19T10:40:57.667Z,54.50
2018-12-19T10:43:25.166Z,56.57
2018-12-19T10:45:52.637Z,54.10
2018-12-19T10:48:20.115Z,51.03
2018-12-19T10:50:47.596Z,51.80
2018-12-19T10:53:15.796Z,55.30
2018-12-19T10:55:43.296Z,55.53
2018-12-19T10:58:10.767Z,58.10
2018-12-19T11:00:43.835Z,54.47
2018-12-19T11:03:11.300Z,57.80
2018-12-19T11:05:38.784Z,58.47
2018-12-19T11:08:06.271Z,49.83
2018-12-19T11:10:33.787Z,49.40
2018-12-19T11:13:01.262Z,57.73
2018-12-19T11:15:28.725Z,54.83
2018-12-19T11:17:56.235Z,56.40
2018-12-19T11:20:23.748Z,53.00
2018-12-19T11:22:51.224Z,52.90
2018-12-19T11:25:18.751Z,53.73
2018-12-19T11:27:46.315Z,56.93
2018-12-19T11:30:13.795Z,51.57
2018-12-19T11:32:41.320Z,51.17
2018-12-19T11:35:08.794Z,54.43
2018-12-19T11:37:36.300Z,52.63
2018-12-19T11:40:05.633Z,57.90
2018-12-19T11:42:33.107Z,54.17
2018-12-19T11:45:00.617Z,48.97
2018-12-19T11:47:28.087Z,53.50
2018-12-19T11:49:55.563Z,50.23
2018-12-19T11:52:23.035Z,47.87
2018-12-19T11:54:50.499Z,51.67
2018-12-19T11:57:17.997Z,59.50
2018-12-19T11:59:45.466Z,57.87
2018-12-19T12:02:12.962Z,55.93
2018-12-19T12:04:40.431Z,55.60
2018-12-19T12:07:08.086Z,51.80
2018-12-19T12:09:35.591Z,52.33
2018-12-19T12:12:03.073Z,53.97
2018-12-19T12:14:30.538Z,45.73
2018-12-19T12:16:58.019Z,49.50
2018-12-19T12:19:25.588Z,49.53
2018-12-19T12:21:53.194Z,50.57
2018-12-19T12:24:20.675Z,52.13
2018-12-19T12:26:48.151Z,49.37
2018-12-19T12:29:15.750Z,50.90
2018-12-19T12:31:43.221Z,52.10
2018-12-19T12:34:10.713Z,52.63
2018-12-19T12:36:38.175Z,54.73
2018-12-19T12:39:06.330Z,52.73
2018-12-19T12:41:33.804Z,46.97
2018-12-19T12:44:01.279Z,52.13
2018-12-19T12:46:28.780Z,46.00
2018-12-19T12:48:56.250Z,46.07
2018-12-19T12:51:23.726Z,46.90
2018-12-19T12:53:51.204Z,49.23
2018-12-19T12:56:18.715Z,50.50
2018-12-19T12:58:46.211Z,47.63
2018-12-19T13:01:13.677Z,48.87
2018-12-19T13:03:41.150Z,47.90
2018-12-19T13:06:08.622Z,48.70
2018-12-19T13:08:36.122Z,49.80
2018-12-19T13:11:03.601Z,47.43
2018-12-19T13:13:31.075Z,50.73
2018-12-19T13:15:58.574Z,52.00
2018-12-19T13:18:26.091Z,48.73
2018-12-19T13:20:53.654Z,52.93
2018-12-19T13:23:21.138Z,49.77
2018-12-19T13:25:48.605Z,46.63
2018-12-19T13:28:16.184Z,48.40
2018-12-19T13:30:43.663Z,59.67
2018-12-19T13:33:11.125Z,49.17
2018-12-19T13:35:38.605Z,54.83
2018-12-19T13:38:06.085Z,52.57
2018-12-19T13:40:33.587Z,57.00
2018-12-19T13:43:01.064Z,53.00
2018-12-19T13:45:28.541Z,51.90
2018-12-19T13:47:56.005Z,52.83
2018-12-19T13:50:24.876Z,54.43
2018-12-19T13:52:52.618Z,54.80
2018-12-19T13:55:20.082Z,51.67
2018-12-19T13:57:47.553Z,50.30
2018-12-19T14:00:15.045Z,54.33
2018-12-19T14:02:42.530Z,51.57
2018-12-19T14:05:10.005Z,53.03
2018-12-19T14:07:37.507Z,50.30
2018-12-19T14:10:05.551Z,54.53
2018-12-19T14:12:33.033Z,56.47
2018-12-19T14:15:00.497Z,56.90
2018-12-19T14:17:27.970Z,57.63
2018-12-19T14:19:55.665Z,55.17
2018-12-19T14:22:24.103Z,55.63
2018-12-19T14:24:51.589Z,53.77
2018-12-19T14:27:19.056Z,56.03
2018-12-19T14:29:46.519Z,55.67
2018-12-19T14:32:14.313Z,56.27
2018-12-19T14:34:41.782Z,56.57
2018-12-19T14:37:09.281Z,55.37
2018-12-19T14:39:36.758Z,56.20
2018-12-19T14:42:04.234Z,55.83
2018-12-19T14:44:31.731Z,56.53
2018-12-19T14:46:59.198Z,51.13
2018-12-19T14:49:26.667Z,60.73
2018-12-19T14:51:54.141Z,51.67
2018-12-19T14:54:21.614Z,54.50
2018-12-19T14:56:49.117Z,55.33
2018-12-19T14:59:16.598Z,52.17
2018-12-19T15:01:44.078Z,52.47
2018-12-19T15:04:11.559Z,55.97
2018-12-19T15:06:39.030Z,58.40
2018-12-19T15:09:06.711Z,56.17
2018-12-19T15:11:34.197Z,52.50
2018-12-19T15:14:01.671Z,53.83
2018-12-19T15:16:29.179Z,49.17
2018-12-19T15:18:56.713Z,52.90
2018-12-19T15:21:24.250Z,51.83
2018-12-19T15:23:51.737Z,53.07
2018-12-19T15:26:19.250Z,54.73
2018-12-19T15:28:46.713Z,48.47
2018-12-19T15:31:14.184Z,51.33
2018-12-19T15:33:41.650Z,58.03
2018-12-19T15:36:09.305Z,53.77
2018-12-19T15:38:36.803Z,53.93
2018-12-19T15:41:04.272Z,58.47
2018-12-19T15:43:31.742Z,55.97
2018-12-19T15:45:59.220Z,62.40
2018-12-19T15:48:26.725Z,61.33
2018-12-19T15:50:54.257Z,58.63
2018-12-19T15:53:21.726Z,59.13
2018-12-19T15:55:49.203Z,64.00
2018-12-19T15:58:16.681Z,63.57
2018-12-19T16:00:44.169Z,59.37
2018-12-19T16:03:11.670Z,63.50
2018-12-19T16:05:39.329Z,63.03
2018-12-19T16:08:06.790Z,59.93
2018-12-19T16:10:34.290Z,59.83
2018-12-19T16:13:01.762Z,64.07
2018-12-19T16:15:29.255Z,60.93
2018-12-19T16:17:56.726Z,62.53
2018-12-19T16:20:24.189Z,67.37
2018-12-19T16:22:51.672Z,61.67
2018-12-19T16:25:19.267Z,67.87
2018-12-19T16:27:46.770Z,64.07
2018-12-19T16:30:14.302Z,69.33
2018-12-19T16:32:41.780Z,66.93
2018-12-19T16:35:09.359Z,74.03
2018-12-19T16:37:36.859Z,72.47
2018-12-19T16:40:04.406Z,74.30
2018-12-19T16:42:31.874Z,82.53
2018-12-19T16:44:59.354Z,79.00
2018-12-19T16:47:26.828Z,78.03
2018-12-19T16:49:54.343Z,75.77
2018-12-19T16:52:21.815Z,78.50
2018-12-19T16:54:49.285Z,87.07
2018-12-19T16:57:16.761Z,79.40
2018-12-19T16:59:44.238Z,81.63
2018-12-19T17:02:11.722Z,80.07
2018-12-19T17:04:39.210Z,76.50
2018-12-19T17:07:06.691Z,90.33
2018-12-19T17:09:34.166Z,83.37
2018-12-19T17:12:01.636Z,87.20
2018-12-19T17:14:29.247Z,82.63
2018-12-19T17:16:56.757Z,77.77
2018-12-19T17:19:24.232Z,81.73
2018-12-19T17:21:51.705Z,84.53
2018-12-19T17:24:21.174Z,94.37
2018-12-19T17:26:48.670Z,86.87
2018-12-19T17:29:17.081Z,85.03
2018-12-19T17:31:44.541Z,81.63
2018-12-19T17:34:12.028Z,80.60
2018-12-19T17:36:39.493Z,85.97
2018-12-19T17:39:07.091Z,80.57
2018-12-19T17:41:34.595Z,79.97
2018-12-19T17:44:02.072Z,85.20
2018-12-19T17:46:29.566Z,81.23
2018-12-19T17:48:57.042Z,85.87
2018-12-19T17:51:24.505Z,85.17
2018-12-19T17:53:51.975Z,83.63
2018-12-19T17:56:19.437Z,81.37
2018-12-19T17:58:46.926Z,90.13
2018-12-19T18:01:14.546Z,84.10
2018-12-19T18:03:42.014Z,86.57
2018-12-19T18:06:09.481Z,86.63
2018-12-19T18:08:36.951Z,83.43
2018-12-19T18:11:04.427Z,89.10
2018-12-19T18:13:31.945Z,81.73
2018-12-19T18:16:00.658Z,83.27
2018-12-19T18:18:28.161Z,84.30
2018-12-19T18:20:55.625Z,83.53
2018-12-19T18:23:23.099Z,89.80
2018-12-19T18:25:50.562Z,87.67
2018-12-19T18:28:18.047Z,86.73
2018-12-19T18:30:45.536Z,86.13
2018-12-19T18:33:13.278Z,85.73
2018-12-19T18:35:40.779Z,85.43
2018-12-19T18:38:08.251Z,90.23
2018-12-19T18:40:35.730Z,97.37
2018-12-19T18:43:03.295Z,98.33
2018-12-19T18:45:30.790Z,93.40
2018-12-19T18:47:58.346Z,85.83
2018-12-19T18:50:25.847Z,87.40
2018-12-19T18:52:53.329Z,91.73
2018-12-19T18:55:20.954Z,85.00
2018-12-19T18:57:48.607Z,85.17
2018-12-19T19:00:18.157Z,83.33
2018-12-19T19:02:46.139Z,83.97
2018-12-19T19:05:13.808Z,82.27
2018-12-19T19:07:41.331Z,82.03
2018-12-19T19:10:08.938Z,86.37
2018-12-19T19:12:36.637Z,87.13
2018-12-19T19:15:04.704Z,86.70
2018-12-19T19:17:32.213Z,86.73
2018-12-19T19:19:59.811Z,97.77
2018-12-19T19:22:27.406Z,90.13
2018-12-19T19:24:54.897Z,86.20
2018-12-19T19:27:22.420Z,92.23
2018-12-19T19:29:49.937Z,87.60
2018-12-19T19:32:18.732Z,87.90
2018-12-19T19:34:46.498Z,93.53
2018-12-19T19:37:13.978Z,90.20
2018-12-19T19:39:41.533Z,88.50
2018-12-19T19:42:09.043Z,88.33
2018-12-19T19:44:36.522Z,83.63
2018-12-19T19:47:04.051Z,82.13
2018-12-19T19:49:31.543Z,93.83
2018-12-19T19:51:59.071Z,100.90
2018-12-19T19:54:26.590Z,84.33
2018-12-19T19:56:54.177Z,84.97
2018-12-19T19:59:21.670Z,86.37
2018-12-19T20:01:49.160Z,85.03
2018-12-19T20:04:16.638Z,80.37
2018-12-19T20:06:44.137Z,83.20
2018-12-19T20:09:11.638Z,78.90
2018-12-19T20:11:39.143Z,78.47
2018-12-19T20:14:06.766Z,83.00
2018-12-19T20:16:36.297Z,93.30
2018-12-19T20:19:03.806Z,79.83
2018-12-19T20:21:31.359Z,86.33
2018-12-19T20:23:58.833Z,84.83
2018-12-19T20:26:26.466Z,77.97
2018-12-19T20:28:53.955Z,72.40
2018-12-19T20:31:21.454Z,74.47
2018-12-19T20:33:49.126Z,75.30
2018-12-19T20:36:16.611Z,79.87
2018-12-19T20:38:44.343Z,75.70
2018-12-19T20:41:11.821Z,83.73
2018-12-19T20:43:40.102Z,76.37
2018-12-19T20:46:07.846Z,84.07
2018-12-19T20:48:35.408Z,73.77
2018-12-19T20:51:02.894Z,66.97
2018-12-19T20:53:30.402Z,61.37
2018-12-19T20:56:03.595Z,64.37
2018-12-19T20:58:27.440Z,74.53
2018-12-19T21:00:54.973Z,69.47
2018-12-19T21:03:22.585Z,70.37
2018-12-19T21:05:50.111Z,74.67
2018-12-19T21:08:17.660Z,67.20
2018-12-19T21:10:45.167Z,62.87
2018-12-19T21:13:12.715Z,63.10
2018-12-19T21:15:40.190Z,68.47
2018-12-19T21:18:13.298Z,65.83
2018-12-19T21:20:40.812Z,70.40
2018-12-19T21:23:08.319Z,75.77
2018-12-19T21:25:35.896Z,72.53
2018-12-19T21:28:03.469Z,77.27
2018-12-19T21:30:31.157Z,78.57
2018-12-19T21:32:59.316Z,77.30
2018-12-19T21:35:26.827Z,80.93
2018-12-19T21:37:54.334Z,78.23
2018-12-19T21:40:22.137Z,78.57
2018-12-19T21:42:49.716Z,80.87
2018-12-19T21:45:17.391Z,88.77
2018-12-19T21:47:44.932Z,77.13
2018-12-19T21:50:12.535Z,80.30
2018-12-19T21:52:40.247Z,84.20
2018-12-19T21:55:07.786Z,79.77
2018-12-19T21:57:35.930Z,80.70
2018-12-19T22:00:03.471Z,78.90
2018-12-19T22:02:31.127Z,81.30
2018-12-19T22:04:58.876Z,78.30
2018-12-19T22:07:26.362Z,85.90
2018-12-19T22:09:53.903Z,84.20
2018-12-19T22:12:21.417Z,79.53
2018-12-19T22:14:48.907Z,81.27
2018-12-19T22:17:22.161Z,78.67
2018-12-19T22:19:49.703Z,80.93
2018-12-19T22:22:17.212Z,77.80
2018-12-19T22:24:44.792Z,84.77
2018-12-19T22:27:12.355Z,75.63
2018-12-19T22:29:40.041Z,84.03
2018-12-19T22:32:08.347Z,76.97
2018-12-19T22:34:35.948Z,85.83
2018-12-19T22:37:03.470Z,82.20
2018-12-19T22:39:30.975Z,90.37
2018-12-19T22:41:58.484Z,83.00
2018-12-19T22:44:26.143Z,80.43
2018-12-19T22:46:53.728Z,82.63
2018-12-19T22:49:21.289Z,88.57
2018-12-19T22:51:48.764Z,72.17
2018-12-19T22:54:16.277Z,73.93
2018-12-19T22:56:43.937Z,77.40
2018-12-19T22:59:11.566Z,78.60
2018-12-19T23:01:44.822Z,85.07
2018-12-19T23:04:12.421Z,78.03
2018-12-19T23:06:40.263Z,75.57
2018-12-19T23:09:07.887Z,96.63
2018-12-19T23:11:35.428Z,81.07
2018-12-19T23:14:03.137Z,79.93
2018-12-19T23:16:30.766Z,82.20
2018-12-19T23:18:58.291Z,86.93
2018-12-19T23:21:25.890Z,87.47
2018-12-19T23:23:53.387Z,80.23
2018-12-19T23:26:20.910Z,87.33
2018-12-19T23:28:48.437Z,73.10
2018-12-19T23:31:15.955Z,83.33
2018-12-19T23:33:43.452Z,72.30
2018-12-19T23:36:10.931Z,77.50
2018-12-19T23:38:38.456Z,74.57
2018-12-19T23:41:06.092Z,73.43
2018-12-19T23:43:33.824Z,72.87
2018-12-19T23:46:01.360Z,74.53
2018-12-19T23:48:28.946Z,73.33
2018-12-19T23:50:56.527Z,78.70
2018-12-19T23:53:24.027Z,72.30
2018-12-19T23:55:51.521Z,72.87
2018-12-19T23:58:19.133Z,73.93
